Time;durP1;ratioP1;P1;durP2;ratioP2;P2;SDS_P1;SDS_P2;PMS_P1;PMS_P2;Temp;Humidity;BMP_temperature;BMP_pressure;BME280_temperature;BME280_humidity;BME280_pressure;Samples;Min_cycle;Max_cycle;Signal;HPM_P1;HPM_P2
2022/11/10 05:22:35;;;;;;;3.80;1.88;;;;;;;8.45;100.00;101005.66;5109323;27;20335;-71
2022/11/10 05:25:19;;;;;;;3.63;2.53;;;;;;;8.51;100.00;101014.88;5109308;28;20051;-71
2022/11/10 05:28:05;;;;;;;3.95;2.35;;;;;;;8.53;100.00;101008.44;5109598;28;20054;-71
2022/11/10 05:30:49;;;;;;;2.13;1.92;;;;;;;8.57;100.00;101011.66;5108931;28;20051;-70
2022/11/10 05:33:34;;;;;;;3.58;2.22;;;;;;;8.59;100.00;101002.56;5110520;22;20475;-69
2022/11/10 05:36:18;;;;;;;5.80;2.42;;;;;;;8.57;100.00;100996.56;5089007;28;20087;-69
2022/11/10 05:39:02;;;;;;;3.00;2.20;;;;;;;8.58;100.00;101008.03;5088994;28;20101;-69
2022/11/10 05:41:46;;;;;;;4.32;2.42;;;;;;;8.58;100.00;101021.31;5088602;28;20097;-69
2022/11/10 05:44:30;;;;;;;4.93;2.95;;;;;;;8.58;100.00;101027.44;5068531;28;20052;-69
2022/11/10 05:47:14;;;;;;;5.93;2.67;;;;;;;8.57;100.00;101017.81;5068803;28;20047;-68
2022/11/10 05:49:58;;;;;;;7.63;2.80;;;;;;;8.57;100.00;101027.59;5068205;28;20090;-69
2022/11/10 05:52:44;;;;;;;4.30;2.38;;;;;;;8.56;100.00;101036.53;5067337;28;20051;-68
2022/11/10 05:55:28;;;;;;;4.32;2.40;;;;;;;8.53;100.00;101040.31;5068612;28;20048;-70
2022/11/10 05:58:12;;;;;;;2.97;1.90;;;;;;;8.48;100.00;101049.69;5068595;28;20405;-69
2022/11/10 06:00:57;;;;;;;3.10;2.40;;;;;;;8.46;100.00;101049.81;5068330;28;20051;-69
2022/11/10 06:03:41;;;;;;;5.15;2.28;;;;;;;8.45;100.00;101066.72;5068421;28;20051;-69
2022/11/10 06:06:24;;;;;;;3.65;2.25;;;;;;;8.35;100.00;101069.41;5068549;28;20090;-60
2022/11/10 06:09:08;;;;;;;4.43;2.75;;;;;;;8.29;100.00;101071.72;5068276;28;20058;-60
2022/11/10 06:11:52;;;;;;;3.70;2.28;;;;;;;8.29;100.00;101077.88;5067686;28;20130;-66
2022/11/10 06:14:36;;;;;;;3.78;2.20;;;;;;;8.30;100.00;101084.03;5068208;28;20067;-66
2022/11/10 06:17:20;;;;;;;4.25;2.00;;;;;;;8.26;100.00;101095.88;5068119;28;20113;-66
2022/11/10 06:20:05;;;;;;;2.22;1.80;;;;;;;8.18;100.00;101106.34;5067579;28;20125;-67
2022/11/10 06:23:11;;;;;;;2.95;2.10;;;;;;;8.13;100.00;101123.50;5067669;28;20091;-66
2022/11/10 06:25:55;;;;;;;2.17;1.88;;;;;;;8.05;100.00;101125.19;5067928;28;20098;-66
2022/11/10 06:28:39;;;;;;;3.88;1.98;;;;;;;8.00;100.00;101133.53;5067636;28;20062;-65
2022/11/10 06:31:23;;;;;;;4.50;2.33;;;;;;;8.00;100.00;101133.53;5067033;28;20079;-67
2022/11/10 06:34:07;;;;;;;3.42;2.03;;;;;;;7.97;100.00;101138.28;5053611;28;20115;-66
2022/11/10 06:36:51;;;;;;;3.88;2.22;;;;;;;7.94;100.00;101143.84;5054110;28;20386;-66
2022/11/10 06:39:35;;;;;;;3.95;2.30;;;;;;;7.95;100.00;101145.53;5054196;28;20515;-66
2022/11/10 06:42:19;;;;;;;6.30;2.25;;;;;;;8.00;100.00;101156.56;5053883;28;20090;-67
2022/11/10 06:45:03;;;;;;;3.35;2.00;;;;;;;7.99;100.00;101165.50;5053908;28;20170;-66
2022/11/10 06:47:47;;;;;;;3.13;2.22;;;;;;;8.00;100.00;101159.22;5054138;28;20508;-68
2022/11/10 06:50:32;;;;;;;5.95;2.65;;;;;;;8.05;100.00;101162.31;5053732;28;20059;-69
2022/11/10 06:53:16;;;;;;;3.67;2.40;;;;;;;8.13;100.00;101173.09;5053932;28;20110;-68
2022/11/10 06:56:00;;;;;;;4.53;2.40;;;;;;;8.08;100.00;101165.53;5052847;28;20055;-64
2022/11/10 06:58:44;;;;;;;4.00;2.30;;;;;;;8.13;100.00;101171.28;5053749;28;20051;-66
2022/11/10 07:01:28;;;;;;;8.50;2.30;;;;;;;8.26;100.00;101192.28;5052412;28;20093;-64
2022/11/10 07:04:14;;;;;;;4.70;3.05;;;;;;;8.28;100.00;101200.09;5067020;28;20060;-65
2022/11/10 07:06:58;;;;;;;4.00;2.47;;;;;;;8.25;100.00;101192.41;5053776;28;20394;-65
2022/11/10 07:09:42;;;;;;;5.13;2.58;;;;;;;8.19;100.00;101198.25;5053604;28;20052;-67
2022/11/10 07:12:26;;;;;;;4.13;2.33;;;;;;;8.16;100.00;101208.19;5052307;28;20055;-65
2022/11/10 07:15:10;;;;;;;4.28;2.13;;;;;;;8.15;100.00;101211.81;5053444;28;20067;-66
2022/11/10 07:17:54;;;;;;;5.35;2.30;;;;;;;8.12;100.00;101221.84;5053646;28;20058;-66
2022/11/10 07:20:38;;;;;;;5.55;2.85;;;;;;;8.14;100.00;101225.19;5053075;28;20075;-66
2022/11/10 07:23:21;;;;;;;2.53;2.33;;;;;;;8.14;100.00;101233.16;5052569;28;20052;-67
2022/11/10 07:26:06;;;;;;;4.32;2.20;;;;;;;8.18;100.00;101237.25;5053717;28;20051;-69
2022/11/10 07:28:50;;;;;;;3.80;2.30;;;;;;;8.24;100.00;101243.84;5053514;28;20051;-66
2022/11/10 07:31:34;;;;;;;2.72;1.85;;;;;;;8.35;100.00;101241.97;5052777;28;20382;-66
2022/11/10 07:34:18;;;;;;;4.13;2.20;;;;;;;8.36;100.00;101246.28;5053084;28;20163;-66
2022/11/10 07:37:02;;;;;;;3.35;2.20;;;;;;;8.31;100.00;101252.94;5053099;28;20182;-68
2022/11/10 07:39:46;;;;;;;3.08;2.47;;;;;;;8.34;100.00;101250.84;5053122;28;20406;-68
2022/11/10 07:42:29;;;;;;;5.25;2.47;;;;;;;8.31;100.00;101247.63;5052849;28;20665;-65
2022/11/10 07:45:14;;;;;;;5.55;2.53;;;;;;;8.45;100.00;101262.38;5052056;28;20577;-68
2022/11/10 07:48:02;;;;;;;4.30;2.88;;;;;;;8.54;100.00;101264.22;5052996;28;20063;-69
2022/11/10 07:50:47;;;;;;;4.97;2.85;;;;;;;8.67;100.00;101270.13;5052596;28;20047;-69
2022/11/10 07:53:30;;;;;;;5.88;3.22;;;;;;;8.73;100.00;101274.03;5053082;28;20051;-69
2022/11/10 07:56:14;;;;;;;3.30;2.28;;;;;;;8.82;100.00;101273.25;5052868;28;20138;-68
2022/11/10 07:58:58;;;;;;;4.50;2.58;;;;;;;8.89;100.00;101272.56;5052811;28;20417;-68
2022/11/10 08:01:42;;;;;;;6.03;2.58;;;;;;;9.01;100.00;101288.38;5052391;28;20051;-68
2022/11/10 08:04:26;;;;;;;5.85;2.40;;;;;;;9.11;100.00;101289.22;5052615;28;20056;-67
2022/11/10 08:07:10;;;;;;;11.07;3.25;;;;;;;9.19;100.00;101292.00;5052699;28;20068;-68
2022/11/10 08:09:54;;;;;;;4.18;2.55;;;;;;;9.22;100.00;101286.44;5052411;28;20091;-68
2022/11/10 08:12:38;;;;;;;3.10;2.65;;;;;;;9.29;100.00;101298.19;5052529;28;20132;-68
2022/11/10 08:15:22;;;;;;;3.88;2.72;;;;;;;9.33;100.00;101296.94;5052350;28;20051;-68
2022/11/10 08:18:14;;;;;;;4.38;3.08;;;;;;;9.37;100.00;101297.50;5052849;28;20056;-68
2022/11/10 08:21:03;;;;;;;3.75;2.42;;;;;;;9.45;100.00;101310.91;5052037;28;20040;-68
2022/11/10 08:23:47;;;;;;;8.50;2.72;;;;;;;9.51;100.00;101319.19;5052297;28;20555;-68
2022/11/10 08:26:31;;;;;;;4.90;3.15;;;;;;;9.58;100.00;101315.97;5052246;28;20051;-68
2022/11/10 08:29:15;;;;;;;6.00;3.97;;;;;;;9.67;100.00;101320.44;5052210;28;20064;-68
2022/11/10 08:31:59;;;;;;;4.97;3.30;;;;;;;9.74;100.00;101324.22;5051683;28;20524;-68
2022/11/10 08:34:43;;;;;;;6.07;3.22;;;;;;;9.82;100.00;101331.50;5051069;28;20060;-68
2022/11/10 08:37:27;;;;;;;8.10;3.15;;;;;;;9.96;100.00;101333.72;5052063;28;20052;-68
2022/11/10 08:40:11;;;;;;;4.93;3.40;;;;;;;10.09;100.00;101328.06;5051760;28;20086;-68
2022/11/10 08:43:00;;;;;;;8.77;3.35;;;;;;;10.22;100.00;101340.09;5051941;28;20052;-67
2022/11/10 08:45:44;;;;;;;3.85;3.10;;;;;;;10.36;100.00;101336.16;5050901;28;20472;-68
2022/11/10 08:48:28;;;;;;;4.88;2.97;;;;;;;10.50;100.00;101337.53;5052347;28;20048;-68
2022/11/10 08:51:12;;;;;;;6.70;3.63;;;;;;;10.65;100.00;101337.88;5051609;28;20051;-68
2022/11/10 08:53:56;;;;;;;5.43;2.92;;;;;;;10.88;100.00;101337.31;5051697;28;20413;-68
2022/11/10 08:56:39;;;;;;;7.85;3.30;;;;;;;11.12;100.00;101339.44;5051553;28;20059;-68
2022/11/10 08:59:24;;;;;;;5.95;2.70;;;;;;;11.49;100.00;101346.47;5051665;28;20599;-68
2022/11/10 09:02:09;;;;;;;4.93;2.95;;;;;;;11.75;100.00;101348.38;5051304;28;20102;-68
2022/11/10 09:04:53;;;;;;;5.40;3.05;;;;;;;12.02;100.00;101348.28;5051919;28;20052;-68
2022/11/10 09:07:47;;;;;;;4.32;2.90;;;;;;;12.34;100.00;101352.19;5051635;28;20501;-68
2022/11/10 09:10:35;;;;;;;6.03;2.47;;;;;;;12.50;100.00;101347.75;5051452;28;20051;-68
2022/11/10 09:13:22;;;;;;;5.13;2.80;;;;;;;12.59;100.00;101353.16;5051541;28;20261;-68
2022/11/10 09:16:06;;;;;;;8.25;2.75;;;;;;;12.75;100.00;101346.03;5051762;28;20056;-69
2022/11/10 09:18:50;;;;;;;3.03;2.00;;;;;;;12.87;100.00;101359.94;5051774;28;20048;-68
2022/11/10 09:21:34;;;;;;;3.90;2.60;;;;;;;12.97;100.00;101359.81;5051183;28;20043;-68
2022/11/10 09:24:18;;;;;;;4.43;2.40;;;;;;;13.03;100.00;101364.50;5051759;28;20075;-68
2022/11/10 09:27:02;;;;;;;3.33;2.15;;;;;;;13.22;100.00;101368.78;5051457;28;20080;-68
2022/11/10 09:29:45;;;;;;;6.32;3.17;;;;;;;13.27;100.00;101371.81;5051359;28;20118;-68
2022/11/10 09:32:31;;;;;;;2.75;2.28;;;;;;;13.62;100.00;101378.72;5051026;28;20126;-67
2022/11/10 09:35:15;;;;;;;2.95;2.00;;;;;;;13.96;100.00;101380.44;5051316;28;20060;-67
2022/11/10 09:37:59;;;;;;;3.53;1.70;;;;;;;14.32;100.00;101373.69;5051353;28;20063;-67
2022/11/10 09:41:05;;;;;;;2.90;1.40;;;;;;;14.70;97.73;101376.63;5051225;28;20071;-66
2022/11/10 09:44:08;;;;;;;1.95;1.33;;;;;;;15.14;97.14;101376.13;5051154;28;20095;-66
2022/11/10 09:47:15;;;;;;;3.95;1.85;;;;;;;15.28;94.78;101393.31;5051519;28;20048;-67
2022/11/10 09:50:00;;;;;;;;;;;;;;;15.35;90.92;101396.97;5051494;28;20092;-67
2022/11/10 09:52:48;;;;;;;2.20;1.48;;;;;;;15.52;92.58;101403.94;5050167;28;19928;-67
2022/11/10 09:56:17;;;;;;;5.18;1.80;;;;;;;15.82;89.87;101406.75;5051212;28;20099;-66
2022/11/10 09:59:15;;;;;;;2.95;1.60;;;;;;;16.36;86.40;101417.38;5028674;28;20064;-66
2022/11/10 10:02:36;;;;;;;4.88;1.40;;;;;;;16.68;80.49;101416.22;5028483;28;20040;-67
2022/11/10 10:05:35;;;;;;;1.75;1.33;;;;;;;17.23;81.28;101414.91;5051039;28;20044;-66
2022/11/10 10:08:41;;;;;;;1.90;1.30;;;;;;;17.32;77.68;101413.78;5066017;28;20536;-66
2022/11/10 10:11:48;;;;;;;3.30;1.50;;;;;;;16.94;77.28;101410.41;5054435;28;20095;-66
2022/11/10 10:15:01;;;;;;;2.65;1.33;;;;;;;16.70;79.20;101409.69;5054487;28;20102;-67
2022/11/10 10:18:17;;;;;;;2.55;1.30;;;;;;;16.79;77.99;101408.53;5054706;28;20107;-67
2022/11/10 10:21:25;;;;;;;1.67;1.23;;;;;;;17.68;76.32;101415.63;5055377;28;20043;-66
2022/11/10 10:24:12;;;;;;;2.60;1.25;;;;;;;18.13;73.18;101401.78;5054622;28;20040;-67
2022/11/10 10:26:59;;;;;;;2.13;1.13;;;;;;;18.80;67.56;101403.09;5054730;28;20055;-67
2022/11/10 10:29:46;;;;;;;1.25;1.00;;;;;;;19.57;66.31;101403.81;5054381;28;20132;-67
2022/11/10 10:32:30;;;;;;;1.98;0.80;;;;;;;20.00;61.91;101393.50;5053898;28;20124;-67
2022/11/10 10:35:16;;;;;;;0.98;0.85;;;;;;;20.55;59.74;101386.00;5054400;28;20182;-68
2022/11/10 10:38:02;;;;;;;2.55;0.98;;;;;;;20.51;57.87;101396.41;5054303;28;20052;-67
2022/11/10 10:40:49;;;;;;;1.50;0.80;;;;;;;21.08;57.74;101391.25;5053978;28;20102;-67
2022/11/10 10:43:33;;;;;;;1.67;0.82;;;;;;;21.30;54.85;101383.66;5054046;28;20696;-67
2022/11/10 10:46:19;;;;;;;1.70;0.98;;;;;;;21.10;56.62;101386.44;5054157;28;20071;-67
2022/11/10 10:49:14;;;;;;;0.93;0.80;;;;;;;21.84;53.57;101404.81;5054420;28;20406;-67
2022/11/10 10:52:10;;;;;;;2.03;0.98;;;;;;;21.72;54.09;101409.28;5053482;28;20051;-68
2022/11/10 10:55:05;;;;;;;3.40;1.35;;;;;;;22.08;52.63;101397.72;5053913;28;20059;-67
2022/11/10 10:57:55;;;;;;;1.85;1.02;;;;;;;22.11;50.80;101380.22;5053919;28;20788;-67
2022/11/10 11:00:44;;;;;;;3.65;1.15;;;;;;;22.26;50.76;101388.84;5053808;28;20123;-67
2022/11/10 11:03:39;;;;;;;2.75;0.90;;;;;;;22.73;51.52;101394.63;5053858;28;20056;-67
2022/11/10 11:06:31;;;;;;;1.67;1.02;;;;;;;22.41;52.31;101391.19;5054003;28;20430;-68
2022/11/10 11:09:24;;;;;;;2.28;1.20;;;;;;;23.30;48.14;101395.22;5053834;28;20200;-67
2022/11/10 11:12:25;;;;;;;5.03;1.10;;;;;;;22.52;47.69;101398.63;5053360;28;20043;-68
2022/11/10 11:15:29;;;;;;;1.33;0.88;;;;;;;22.00;49.78;101399.91;5054040;28;20060;-68
2022/11/10 11:18:16;;;;;;;3.10;1.15;;;;;;;21.66;51.97;101389.28;5053524;28;20517;-68
2022/11/10 11:21:18;;;;;;;2.55;1.00;;;;;;;21.18;51.42;101385.34;5053172;28;20048;-68
2022/11/10 11:24:16;;;;;;;4.13;1.27;;;;;;;20.96;50.26;101396.50;5053340;28;20063;-67
2022/11/10 11:27:04;;;;;;;1.23;0.80;;;;;;;21.26;50.94;101394.09;5053445;28;20079;-67
2022/11/10 11:30:07;;;;;;;1.33;0.60;;;;;;;21.29;50.68;101390.13;5053437;28;20118;-67
2022/11/10 11:33:16;;;;;;;1.10;0.95;;;;;;;21.63;49.02;101391.59;5084015;22;20100;-68
2022/11/10 11:36:04;;;;;;;4.95;1.25;;;;;;;21.38;49.46;101392.34;5084340;28;20069;-66
2022/11/10 11:38:54;;;;;;;2.33;0.98;;;;;;;21.22;50.20;101390.13;5083973;28;20664;-68
2022/11/10 11:42:02;;;;;;;0.77;0.77;;;;;;;22.45;49.28;101393.25;5082290;28;20611;-69
2022/11/10 11:45:06;;;;;;;1.30;0.80;;;;;;;22.75;46.21;101400.66;5060892;28;20071;-69
2022/11/10 11:47:49;;;;;;;0.90;0.70;;;;;;;22.50;48.33;101391.75;5043310;28;20040;-68
2022/11/10 11:50:53;;;;;;;2.63;1.25;;;;;;;24.02;45.27;101387.88;5061597;28;20079;-68
2022/11/10 11:54:08;;;;;;;1.52;0.95;;;;;;;24.08;43.31;101389.66;5061719;28;20125;-68
2022/11/10 11:57:03;;;;;;;5.28;1.08;;;;;;;23.74;42.89;101390.44;5055496;28;20123;-68
2022/11/10 11:59:56;;;;;;;1.27;0.85;;;;;;;23.78;43.63;101386.19;5052689;28;20114;-68
2022/11/10 12:03:08;;;;;;;2.97;1.10;;;;;;;22.59;44.71;101390.41;5052519;28;20083;-68
2022/11/10 12:06:26;;;;;;;1.63;0.98;;;;;;;21.75;46.02;101392.56;5052422;28;20079;-69
2022/11/10 12:09:34;;;;;;;1.30;0.90;;;;;;;21.23;48.15;101374.72;5052671;28;20056;-69
2022/11/10 12:12:50;;;;;;;2.30;1.27;;;;;;;20.48;49.60;101379.78;5052055;28;20517;-69
2022/11/10 12:15:52;;;;;;;1.38;0.90;;;;;;;19.77;50.07;101377.69;5052416;28;20071;-67
2022/11/10 12:18:47;;;;;;;2.20;1.17;;;;;;;19.23;52.83;101381.25;5052166;28;20595;-68
2022/11/10 12:21:53;;;;;;;2.40;1.15;;;;;;;19.01;56.84;101391.34;5052223;28;20055;-67
2022/11/10 12:24:49;;;;;;;1.23;0.90;;;;;;;19.37;55.89;101387.56;5052287;28;20047;-68
2022/11/10 12:27:41;;;;;;;2.27;1.33;;;;;;;19.16;56.71;101377.69;5052376;28;20140;-67
2022/11/10 12:30:28;;;;;;;2.33;0.98;;;;;;;18.80;53.68;101381.50;5051196;28;20167;-67
2022/11/10 12:33:21;;;;;;;2.38;1.05;;;;;;;18.91;55.30;101390.91;5051992;28;20167;-67
2022/11/10 12:36:11;;;;;;;1.20;0.90;;;;;;;18.48;56.49;101398.31;5052263;28;20056;-68
2022/11/10 12:39:07;;;;;;;3.55;0.93;;;;;;;18.49;60.82;101398.09;5052113;28;20102;-68
2022/11/10 12:41:57;;;;;;;3.33;1.02;;;;;;;18.41;59.04;101400.94;5052031;28;20048;-67
2022/11/10 12:45:01;;;;;;;2.13;1.08;;;;;;;18.35;59.82;101397.19;5051828;28;20047;-67
2022/11/10 12:47:46;;;;;;;1.83;1.00;;;;;;;18.42;60.57;101394.53;5033733;28;20079;-64
2022/11/10 12:50:40;;;;;;;3.28;1.08;;;;;;;18.46;59.19;101403.06;5051767;28;20532;-66
2022/11/10 12:53:31;;;;;;;1.88;0.75;;;;;;;18.39;60.06;101397.63;5051695;28;20110;-65
2022/11/10 12:56:21;;;;;;;1.45;0.98;;;;;;;18.43;60.60;101402.41;5051778;28;20099;-68
2022/11/10 12:59:32;;;;;;;0.80;0.60;;;;;;;18.09;60.90;101396.97;5051614;28;20095;-65
2022/11/10 13:02:19;;;;;;;1.83;0.93;;;;;;;17.83;60.91;101401.09;5051253;28;20040;-67
2022/11/10 13:05:26;;;;;;;4.00;1.55;;;;;;;17.94;60.75;101397.06;5051877;28;20090;-68
2022/11/10 13:08:29;;;;;;;4.33;1.20;;;;;;;17.58;62.32;101397.91;5051796;28;20056;-67
2022/11/10 13:11:13;;;;;;;1.00;0.65;;;;;;;17.75;63.95;101411.19;5051321;28;20291;-66
2022/11/10 13:13:59;;;;;;;4.60;1.00;;;;;;;17.77;63.33;101398.34;5051430;28;20132;-66
2022/11/10 13:16:43;;;;;;;5.60;1.38;;;;;;;17.51;63.30;101409.66;5052000;28;20412;-66
2022/11/10 13:19:27;;;;;;;2.45;1.00;;;;;;;17.40;63.62;101420.91;5051625;28;20094;-66
2022/11/10 13:22:28;;;;;;;3.58;1.10;;;;;;;17.04;63.75;101417.16;5051417;28;20072;-66
2022/11/10 13:25:36;;;;;;;2.33;1.08;;;;;;;17.08;62.42;101417.63;5051618;28;20059;-66
2022/11/10 13:28:58;;;;;;;2.75;0.93;;;;;;;16.89;61.96;101424.44;5052173;28;20509;-67
2022/11/10 13:31:50;;;;;;;3.08;0.98;;;;;;;17.02;61.36;101427.28;4989542;28;20157;-67
2022/11/10 13:34:36;;;;;;;1.75;0.80;;;;;;;16.89;63.40;101429.81;5051338;28;20044;-66
2022/11/10 13:37:32;;;;;;;3.75;1.00;;;;;;;16.75;63.35;101419.84;5051734;28;20469;-66
2022/11/10 13:40:16;;;;;;;4.95;0.95;;;;;;;16.79;65.25;101426.56;5035923;28;20063;-66
2022/11/10 13:43:00;;;;;;;1.50;0.90;;;;;;;16.53;67.53;101435.88;5052731;28;20051;-66
2022/11/10 13:45:46;;;;;;;2.60;1.33;;;;;;;16.60;67.95;101432.44;5055189;28;20047;-66
2022/11/10 13:48:41;;;;;;;0.95;0.85;;;;;;;16.38;68.19;101426.94;5042134;28;20056;-67
2022/11/10 13:51:42;;;;;;;3.28;1.10;;;;;;;16.33;66.54;101436.56;5064135;28;20437;-65
2022/11/10 13:54:48;;;;;;;2.47;1.55;;;;;;;16.10;68.31;101425.84;5064179;28;20086;-65
2022/11/10 13:57:37;;;;;;;0.80;0.77;;;;;;;16.26;68.21;101423.03;5064006;28;20040;-66
2022/11/10 14:00:27;;;;;;;1.75;1.10;;;;;;;16.23;68.78;101429.59;5061755;28;20051;-66
2022/11/10 14:03:46;;;;;;;4.20;1.13;;;;;;;16.06;68.01;101433.44;5039785;28;20134;-66
2022/11/10 14:06:43;;;;;;;2.92;1.30;;;;;;;15.94;66.71;101435.72;5054648;28;20056;-66
2022/11/10 14:09:33;;;;;;;1.60;1.05;;;;;;;15.95;68.25;101440.06;5055006;28;20106;-67
2022/11/10 14:12:34;;;;;;;3.22;1.20;;;;;;;15.74;69.81;101442.59;5054215;28;20502;-66
2022/11/10 14:15:37;;;;;;;2.03;0.82;;;;;;;15.67;69.91;101442.47;5039451;28;20076;-66
2022/11/10 14:18:29;;;;;;;4.60;1.08;;;;;;;15.72;69.18;101445.44;5054619;28;20484;-67
2022/11/10 14:21:25;;;;;;;3.00;1.13;;;;;;;15.82;71.47;101449.75;5054248;28;20513;-66
2022/11/10 14:24:17;;;;;;;6.90;1.30;;;;;;;15.65;69.79;101454.41;5039292;28;20401;-66
2022/11/10 14:27:11;;;;;;;3.17;1.17;;;;;;;15.48;70.50;101451.75;5054326;28;20044;-67
2022/11/10 14:30:17;;;;;;;2.03;0.88;;;;;;;15.49;70.61;101460.66;5054402;28;20505;-66
2022/11/10 14:33:05;;;;;;;1.47;1.03;;;;;;;15.46;71.65;101458.34;5054083;28;20047;-66
2022/11/10 14:35:54;;;;;;;5.90;1.08;;;;;;;15.38;71.39;101459.19;5054130;28;20377;-66
2022/11/10 14:38:43;;;;;;;3.85;1.25;;;;;;;15.23;71.54;101457.44;5054415;28;20048;-67
2022/11/10 14:41:27;;;;;;;1.73;1.13;;;;;;;15.28;71.83;101471.16;5054026;28;20056;-66
2022/11/10 14:44:18;;;;;;;5.82;1.23;;;;;;;15.23;72.81;101465.47;5054250;28;20067;-67
2022/11/10 14:47:23;;;;;;;4.97;1.30;;;;;;;15.25;73.87;101466.13;5039178;28;20095;-65
2022/11/10 14:50:13;;;;;;;3.00;1.48;;;;;;;15.15;73.79;101469.88;5053884;28;20583;-67
2022/11/10 14:53:01;;;;;;;2.47;1.40;;;;;;;15.11;74.52;101465.00;5053548;28;20036;-67
2022/11/10 14:55:46;;;;;;;4.03;1.50;;;;;;;15.01;76.87;101467.06;5054028;28;20068;-66
2022/11/10 14:58:34;;;;;;;1.77;1.27;;;;;;;14.91;75.44;101470.78;5054152;28;20060;-66
2022/11/10 15:01:37;;;;;;;0.82;0.77;;;;;;;14.86;75.70;101472.28;5053949;28;20095;-65
2022/11/10 15:04:29;;;;;;;1.80;1.20;;;;;;;14.75;75.50;101481.56;5053798;28;20414;-65
2022/11/10 15:07:13;;;;;;;4.85;1.50;;;;;;;14.72;77.25;101489.94;5053619;28;20113;-65
2022/11/10 15:10:18;;;;;;;5.20;1.50;;;;;;;14.65;77.87;101494.31;5038304;28;20094;-65
2022/11/10 15:13:25;;;;;;;1.85;1.30;;;;;;;14.59;78.94;101494.97;5053639;28;20109;-65
2022/11/10 15:16:30;;;;;;;4.20;1.60;;;;;;;14.52;79.04;101497.50;5053486;28;20055;-65
2022/11/10 15:19:34;;;;;;;4.78;1.83;;;;;;;14.44;78.22;101499.31;5053824;28;20044;-65
2022/11/10 15:22:32;;;;;;;3.15;1.38;;;;;;;14.36;77.89;101502.84;5053004;28;20125;-65
2022/11/10 15:25:20;;;;;;;2.88;1.20;;;;;;;14.31;78.95;101499.81;5038154;28;20059;-66
2022/11/10 15:28:10;;;;;;;1.77;1.23;;;;;;;14.25;79.63;101503.16;5053242;28;20425;-68
2022/11/10 15:30:58;;;;;;;1.33;1.10;;;;;;;14.18;80.50;101503.00;5037577;28;20047;-67
2022/11/10 15:33:46;;;;;;;;;;;;;;;14.07;83.05;101506.81;5053349;28;20056;-65
2022/11/10 15:36:38;;;;;;;3.53;1.17;;;;;;;14.01;84.83;101510.16;5053377;28;20361;-66
2022/11/10 15:39:25;;;;;;;2.72;1.35;;;;;;;13.83;84.94;101513.00;5053260;28;20512;-66
2022/11/10 15:42:14;;;;;;;9.88;2.00;;;;;;;13.67;86.59;101504.91;5052969;28;20095;-67
2022/11/10 15:44:58;;;;;;;4.05;2.08;;;;;;;13.46;88.52;101504.50;5053105;28;20504;-65
2022/11/10 15:47:42;;;;;;;3.65;1.75;;;;;;;13.28;90.75;101504.59;5051636;28;20559;-65
2022/11/10 15:50:26;;;;;;;3.88;1.70;;;;;;;13.11;92.25;101495.63;5052249;28;20075;-65
2022/11/10 15:53:14;;;;;;;2.78;1.42;;;;;;;12.97;92.86;101490.84;5052641;28;20091;-65
2022/11/10 15:55:58;;;;;;;2.88;1.33;;;;;;;12.84;93.87;101498.47;5052900;28;20102;-65
2022/11/10 15:58:52;;;;;;;3.05;1.88;;;;;;;12.53;96.66;101498.09;5052612;28;20140;-64
2022/11/10 16:01:37;;;;;;;3.58;1.63;;;;;;;12.42;97.18;101502.69;5052509;28;20471;-64
2022/11/10 16:04:20;;;;;;;4.28;1.55;;;;;;;12.40;97.74;101507.34;5052712;28;20061;-65
2022/11/10 16:07:04;;;;;;;2.92;1.92;;;;;;;12.19;99.68;101505.00;5051929;28;20468;-65
2022/11/10 16:09:48;;;;;;;8.38;3.88;;;;;;;12.16;99.71;101502.63;5052406;28;20052;-64
2022/11/10 16:12:33;;;;;;;9.30;3.25;;;;;;;12.03;100.00;101506.69;5052199;28;20128;-65
2022/11/10 16:15:19;;;;;;;7.85;2.33;;;;;;;12.18;99.92;101513.16;5037046;28;20152;-66
2022/11/10 16:18:03;;;;;;;4.35;2.42;;;;;;;12.05;100.00;101518.88;5037138;28;20231;-66
2022/11/10 16:20:51;;;;;;;5.28;2.97;;;;;;;11.87;100.00;101520.72;5051795;28;20060;-65
2022/11/10 16:23:35;;;;;;;6.35;2.08;;;;;;;11.60;100.00;101505.50;5052203;28;20660;-65
2022/11/10 16:26:24;;;;;;;8.68;2.42;;;;;;;11.68;100.00;101524.31;5037325;28;20425;-65
2022/11/10 16:29:12;;;;;;;10.23;3.20;;;;;;;11.56;100.00;101534.34;5052249;28;20052;-66
2022/11/10 16:31:56;;;;;;;6.60;3.90;;;;;;;11.59;100.00;101531.38;5051623;28;20138;-66
2022/11/10 16:34:40;;;;;;;8.82;3.92;;;;;;;11.51;100.00;101533.09;5051552;28;20087;-65
2022/11/10 16:37:25;;;;;;;4.72;2.38;;;;;;;11.39;100.00;101532.44;5052187;28;20048;-55
2022/11/10 16:40:17;;;;;;;6.93;2.50;;;;;;;11.12;100.00;101536.78;5036527;28;20573;-63
2022/11/10 16:43:01;;;;;;;8.52;2.28;;;;;;;11.05;100.00;101533.00;5051601;28;20062;-66
2022/11/10 16:45:46;;;;;;;3.60;1.98;;;;;;;10.87;100.00;101540.06;5022969;28;20131;-66
2022/11/10 16:48:32;;;;;;;3.45;2.15;;;;;;;10.84;100.00;101540.38;5051728;28;20119;-67
2022/11/10 16:51:17;;;;;;;2.92;1.90;;;;;;;10.70;100.00;101540.81;5051458;28;20044;-68
2022/11/10 16:54:01;;;;;;;4.22;1.65;;;;;;;10.55;100.00;101530.56;5051751;28;20517;-68
2022/11/10 16:56:45;;;;;;;3.67;2.05;;;;;;;10.41;100.00;101535.50;5052711;28;20493;-67
2022/11/10 16:59:29;;;;;;;3.80;1.90;;;;;;;10.27;100.00;101528.78;5051567;28;20106;-67
2022/11/10 17:02:30;;;;;;;4.30;1.70;;;;;;;10.40;100.00;101536.50;5051373;28;20051;-67
2022/11/10 17:05:14;;;;;;;4.38;2.00;;;;;;;10.38;100.00;101541.97;5051295;28;20048;-68
2022/11/10 17:07:59;;;;;;;3.63;2.33;;;;;;;10.46;100.00;101550.09;5051231;28;20402;-69
2022/11/10 17:10:43;;;;;;;4.35;2.05;;;;;;;10.43;100.00;101550.38;5050936;28;20205;-68
2022/11/10 17:13:27;;;;;;;3.50;2.03;;;;;;;10.22;100.00;101557.59;5036131;28;20059;-68
2022/11/10 17:16:24;;;;;;;6.15;2.60;;;;;;;10.09;100.00;101562.34;5050907;28;20198;-68
2022/11/10 17:19:16;;;;;;;4.47;2.08;;;;;;;9.94;100.00;101560.09;5051478;28;20091;-68
2022/11/10 17:22:00;;;;;;;6.63;2.58;;;;;;;9.91;100.00;101559.53;5051236;28;20102;-67
2022/11/10 17:24:50;;;;;;;4.55;2.22;;;;;;;9.82;100.00;101560.34;5051204;28;20059;-68
2022/11/10 17:27:34;;;;;;;10.68;3.30;;;;;;;9.79;100.00;101564.13;5036239;28;20528;-69
2022/11/10 17:30:19;;;;;;;16.33;4.70;;;;;;;9.73;100.00;101575.31;5051229;28;20146;-69
2022/11/10 17:33:03;;;;;;;4.32;2.78;;;;;;;9.51;100.00;101577.19;5060379;23;20052;-72
2022/11/10 17:35:50;;;;;;;5.25;2.50;;;;;;;9.49;100.00;101571.16;5071272;28;20094;-72
2022/11/10 17:38:35;;;;;;;4.28;2.33;;;;;;;9.43;100.00;101577.03;5071309;28;20055;-72
2022/11/10 17:41:19;;;;;;;8.30;2.65;;;;;;;9.33;100.00;101591.28;5070454;28;20076;-74
2022/11/10 17:44:03;;;;;;;8.98;3.65;;;;;;;9.34;100.00;101590.28;5070665;28;20063;-72
2022/11/10 17:46:47;;;;;;;7.43;3.20;;;;;;;9.21;100.00;101594.00;5071420;28;20116;-72
2022/11/10 17:49:31;;;;;;;11.55;2.53;;;;;;;9.17;100.00;101592.56;5071084;28;20090;-73
2022/11/10 17:52:17;;;;;;;7.47;3.80;;;;;;;9.11;100.00;101593.09;5070766;28;20070;-73
2022/11/10 17:55:00;;;;;;;6.22;2.90;;;;;;;9.06;100.00;101595.28;5070994;28;20106;-73
2022/11/10 17:57:45;;;;;;;7.78;3.38;;;;;;;8.96;100.00;101592.59;5071022;28;20054;-73
2022/11/10 18:00:29;;;;;;;4.55;2.72;;;;;;;8.86;100.00;101598.81;5070924;28;20171;-71
2022/11/10 18:03:20;;;;;;;9.25;2.63;;;;;;;8.77;100.00;101596.94;5070890;28;20047;-72
2022/11/10 18:06:06;;;;;;;10.40;3.78;;;;;;;8.74;100.00;101600.69;5071067;28;20055;-72
2022/11/10 18:08:49;;;;;;;13.35;4.45;;;;;;;8.68;100.00;101603.88;5070966;28;20098;-72
2022/11/10 18:11:33;;;;;;;6.45;2.78;;;;;;;8.61;100.00;101605.34;5070884;28;20054;-73
2022/11/10 18:14:17;;;;;;;11.80;4.72;;;;;;;8.61;100.00;101600.88;5070876;28;20054;-72
2022/11/10 18:17:01;;;;;;;6.10;2.65;;;;;;;8.54;100.00;101598.84;5070818;28;20056;-72
2022/11/10 18:19:45;;;;;;;10.60;2.40;;;;;;;8.51;100.00;101609.72;5070844;28;20076;-71
2022/11/10 18:22:30;;;;;;;4.20;2.15;;;;;;;8.40;100.00;101610.59;5070653;28;20047;-71
2022/11/10 18:25:14;;;;;;;4.05;2.13;;;;;;;8.41;100.00;101617.59;5070670;28;20071;-70
2022/11/10 18:27:57;;;;;;;7.75;2.08;;;;;;;8.38;100.00;101613.38;5070885;28;20051;-71
2022/11/10 18:30:42;;;;;;;5.60;2.25;;;;;;;8.31;100.00;101612.19;5073899;28;20055;-72